createdAt,value
2019-03-25T00:00:47.836Z,80.68
2019-03-25T00:01:47.804Z,80.49
2019-03-25T00:02:47.789Z,80.30
2019-03-25T00:03:47.764Z,80.40
2019-03-25T00:04:47.741Z,80.30
2019-03-25T00:05:47.721Z,80.11
2019-03-25T00:06:47.756Z,79.73
2019-03-25T00:07:47.686Z,79.83
2019-03-25T00:08:47.864Z,79.83
2019-03-25T00:09:47.639Z,79.49
2019-03-25T00:10:47.620Z,79.63
2019-03-25T00:11:47.602Z,79.68
2019-03-25T00:12:47.578Z,79.35
2019-03-25T00:13:47.566Z,79.49
2019-03-25T00:14:47.540Z,79.58
2019-03-25T00:15:47.523Z,79.25
2019-03-25T00:16:47.506Z,79.68
2019-03-25T00:17:47.479Z,79.01
2019-03-25T00:18:47.462Z,78.34
2019-03-25T00:19:47.439Z,78.53
2019-03-25T00:20:47.426Z,78.63
2019-03-25T00:21:47.396Z,79.11
2019-03-25T00:22:47.381Z,78.25
2019-03-25T00:23:47.367Z,78.59
2019-03-25T00:24:47.336Z,78.82
2019-03-25T00:25:47.321Z,78.53
2019-03-25T00:26:47.301Z,78.53
2019-03-25T00:27:47.277Z,78.06
2019-03-25T00:28:47.256Z,78.53
2019-03-25T00:29:47.240Z,77.87
2019-03-25T00:30:47.218Z,78.06
2019-03-25T00:31:47.200Z,78.69
2019-03-25T00:32:47.171Z,78.97
2019-03-25T00:33:47.155Z,78.97
2019-03-25T00:34:47.131Z,78.69
2019-03-25T00:35:47.162Z,78.59
2019-03-25T00:36:47.093Z,78.88
2019-03-25T00:37:47.072Z,78.50
2019-03-25T00:38:47.050Z,78.50
2019-03-25T00:39:47.042Z,78.59
2019-03-25T00:40:47.010Z,78.88
2019-03-25T00:41:46.989Z,78.97
2019-03-25T00:42:46.972Z,78.97
2019-03-25T00:43:46.951Z,78.34
2019-03-25T00:44:46.930Z,78.82
2019-03-25T00:45:46.907Z,78.25
2019-03-25T00:46:46.889Z,77.77
2019-03-25T00:47:46.869Z,77.68
2019-03-25T00:48:46.846Z,77.55
2019-03-25T00:49:46.827Z,78.30
2019-03-25T00:50:46.806Z,77.92
2019-03-25T00:51:46.788Z,78.50
2019-03-25T00:52:46.764Z,78.69
2019-03-25T00:53:46.799Z,78.59
2019-03-25T00:54:50.176Z,78.69
2019-03-25T00:55:46.705Z,78.30
2019-03-25T00:56:46.683Z,78.30
2019-03-25T00:57:46.666Z,78.78
2019-03-25T00:58:46.643Z,78.50
2019-03-25T00:59:48.904Z,78.78
2019-03-25T01:00:46.604Z,78.30
2019-03-25T01:01:46.580Z,78.59
2019-03-25T01:02:46.566Z,79.06
2019-03-25T01:03:46.545Z,78.21
2019-03-25T01:04:46.519Z,78.21
2019-03-25T01:05:46.499Z,78.02
2019-03-25T01:06:46.478Z,77.64
2019-03-25T01:07:46.462Z,77.68
2019-03-25T01:08:46.437Z,77.45
2019-03-25T01:09:46.416Z,77.64
2019-03-25T01:10:46.397Z,77.55
2019-03-25T01:11:49.391Z,77.68
2019-03-25T01:12:46.356Z,77.49
2019-03-25T01:13:46.339Z,78.06
2019-03-25T01:14:46.312Z,77.11
2019-03-25T01:15:46.293Z,77.30
2019-03-25T01:16:46.274Z,77.30
2019-03-25T01:17:46.270Z,77.58
2019-03-25T01:18:46.231Z,77.01
2019-03-25T01:19:46.209Z,77.11
2019-03-25T01:20:46.192Z,77.11
2019-03-25T01:21:46.173Z,77.30
2019-03-25T01:22:46.151Z,77.20
2019-03-25T01:23:46.128Z,76.63
2019-03-25T01:24:46.107Z,76.54
2019-03-25T01:25:46.099Z,76.73
2019-03-25T01:26:46.067Z,76.73
2019-03-25T01:27:46.050Z,75.96
2019-03-25T01:28:46.025Z,77.11
2019-03-25T01:29:46.006Z,76.35
2019-03-25T01:30:45.986Z,76.16
2019-03-25T01:31:45.967Z,75.96
2019-03-25T01:32:45.952Z,76.82
2019-03-25T01:33:45.934Z,76.63
2019-03-25T01:34:45.902Z,76.63
2019-03-25T01:35:45.884Z,76.73
2019-03-25T01:36:45.861Z,76.92
2019-03-25T01:37:45.842Z,76.16
2019-03-25T01:38:45.821Z,76.16
2019-03-25T01:39:45.797Z,75.96
2019-03-25T01:40:45.776Z,76.73
2019-03-25T01:41:45.755Z,76.63
2019-03-25T01:42:45.851Z,76.82
2019-03-25T01:43:45.715Z,76.92
2019-03-25T01:44:45.694Z,76.63
2019-03-25T01:45:45.670Z,77.11
2019-03-25T01:46:45.651Z,76.63
2019-03-25T01:47:45.632Z,77.01
2019-03-25T01:48:45.611Z,77.30
2019-03-25T01:49:45.590Z,76.63
2019-03-25T01:50:45.568Z,76.73
2019-03-25T01:51:45.549Z,76.82
2019-03-25T01:52:45.527Z,76.73
2019-03-25T01:53:45.515Z,77.11
2019-03-25T01:54:45.488Z,76.82
2019-03-25T01:55:45.466Z,77.58
2019-03-25T01:56:45.453Z,77.87
2019-03-25T01:57:45.424Z,77.77
2019-03-25T01:58:45.404Z,77.87
2019-03-25T01:59:45.384Z,77.87
2019-03-25T02:00:45.367Z,77.97
2019-03-25T02:01:45.346Z,78.16
2019-03-25T02:02:45.325Z,78.53
2019-03-25T02:03:45.304Z,79.20
2019-03-25T02:04:45.278Z,78.91
2019-03-25T02:05:45.259Z,79.20
2019-03-25T02:06:45.239Z,79.58
2019-03-25T02:07:45.223Z,79.86
2019-03-25T02:08:45.198Z,79.58
2019-03-25T02:09:45.178Z,79.49
2019-03-25T02:10:45.155Z,79.39
2019-03-25T02:11:45.134Z,79.96
2019-03-25T02:12:45.147Z,80.05
2019-03-25T02:13:45.096Z,80.15
2019-03-25T02:14:45.078Z,80.34
2019-03-25T02:15:45.050Z,80.91
2019-03-25T02:16:45.031Z,81.10
2019-03-25T02:17:45.009Z,81.67
2019-03-25T02:18:44.992Z,81.77
2019-03-25T02:19:44.969Z,81.38
2019-03-25T02:20:44.947Z,81.86
2019-03-25T02:21:44.964Z,81.77
2019-03-25T02:22:45.062Z,81.86
2019-03-25T02:23:44.888Z,81.96
2019-03-25T02:24:44.864Z,81.96
2019-03-25T02:25:44.850Z,81.86
2019-03-25T02:26:44.834Z,81.67
2019-03-25T02:27:44.806Z,82.34
2019-03-25T02:28:44.781Z,82.62
2019-03-25T02:29:44.763Z,81.96
2019-03-25T02:30:44.741Z,82.24
2019-03-25T02:31:44.765Z,82.43
2019-03-25T02:32:44.699Z,82.81
2019-03-25T02:33:44.686Z,83.19
2019-03-25T02:34:44.665Z,83.00
2019-03-25T02:35:44.657Z,83.10
2019-03-25T02:36:44.620Z,83.19
2019-03-25T02:37:44.597Z,83.76
2019-03-25T02:38:44.574Z,83.67
2019-03-25T02:39:44.554Z,83.86
2019-03-25T02:40:44.551Z,83.95
2019-03-25T02:41:44.522Z,83.86
2019-03-25T02:42:44.492Z,83.95
2019-03-25T02:43:44.469Z,84.05
2019-03-25T02:44:44.464Z,84.24
2019-03-25T02:45:44.434Z,84.81
2019-03-25T02:46:44.409Z,84.52
2019-03-25T02:47:44.408Z,84.91
2019-03-25T02:48:44.378Z,85.57
2019-03-25T02:49:44.351Z,85.00
2019-03-25T02:50:44.345Z,85.10
2019-03-25T02:51:44.306Z,85.76
2019-03-25T02:52:44.282Z,85.00
2019-03-25T02:53:44.268Z,85.10
2019-03-25T02:54:44.257Z,85.10
2019-03-25T02:55:44.220Z,85.10
2019-03-25T02:56:44.207Z,85.76
2019-03-25T02:57:44.182Z,85.86
2019-03-25T02:58:44.159Z,86.24
2019-03-25T02:59:44.153Z,87.19
2019-03-25T03:00:44.118Z,88.71
2019-03-25T03:01:44.097Z,90.33
2019-03-25T03:02:44.079Z,90.80
2019-03-25T03:03:44.058Z,91.47
2019-03-25T03:04:44.033Z,91.75
2019-03-25T03:05:44.014Z,92.22
2019-03-25T03:06:43.997Z,92.80
2019-03-25T03:07:43.972Z,92.41
2019-03-25T03:08:47.321Z,93.08
2019-03-25T03:09:43.932Z,93.65
2019-03-25T03:10:43.922Z,94.70
2019-03-25T03:11:43.890Z,95.08
2019-03-25T03:12:43.869Z,96.41
2019-03-25T03:13:43.846Z,97.27
2019-03-25T03:14:43.832Z,98.41
2019-03-25T03:15:43.821Z,99.64
2019-03-25T03:16:43.798Z,99.99
2019-03-25T03:17:43.765Z,99.99
2019-03-25T03:18:43.744Z,99.99
2019-03-25T03:19:43.724Z,99.99
2019-03-25T03:20:43.706Z,99.99
2019-03-25T03:21:43.686Z,99.99
2019-03-25T03:22:43.664Z,99.99
2019-03-25T03:23:43.642Z,99.99
2019-03-25T03:24:43.628Z,99.99
2019-03-25T03:25:56.242Z,99.99
2019-03-25T03:26:43.580Z,99.99
2019-03-25T03:27:43.558Z,99.99
2019-03-25T03:28:43.548Z,99.99
2019-03-25T03:29:43.598Z,99.99
2019-03-25T03:30:43.495Z,99.99
2019-03-25T03:31:43.476Z,99.99
2019-03-25T03:32:43.466Z,99.99
2019-03-25T03:33:43.474Z,99.99
2019-03-25T03:34:43.412Z,99.99
2019-03-25T03:35:46.339Z,99.99
2019-03-25T03:36:43.369Z,99.99
2019-03-25T03:37:43.344Z,99.99
2019-03-25T03:38:43.325Z,99.99
2019-03-25T03:39:43.318Z,99.99
2019-03-25T03:40:43.285Z,99.99
2019-03-25T03:41:43.269Z,99.99
2019-03-25T03:42:43.241Z,99.99
2019-03-25T03:43:43.223Z,99.99
2019-03-25T03:44:43.201Z,99.99
2019-03-25T03:45:43.212Z,99.99
2019-03-25T03:46:43.160Z,99.99
2019-03-25T03:47:43.137Z,99.99
2019-03-25T03:48:43.117Z,99.99
2019-03-25T03:49:43.096Z,99.99
2019-03-25T03:50:43.079Z,99.99
2019-03-25T03:51:43.063Z,99.99
2019-03-25T03:52:43.052Z,99.99
2019-03-25T03:53:43.012Z,99.99
2019-03-25T03:54:43.005Z,99.99
2019-03-25T03:55:42.971Z,99.99
2019-03-25T03:56:42.950Z,99.99
2019-03-25T03:57:42.943Z,99.99
2019-03-25T03:58:42.912Z,99.99
2019-03-25T03:59:42.887Z,99.99
2019-03-25T04:00:42.869Z,99.99
2019-03-25T04:01:42.846Z,99.99
2019-03-25T04:02:42.825Z,99.99
2019-03-25T04:03:42.807Z,99.99
2019-03-25T04:04:42.782Z,99.99
2019-03-25T04:05:42.765Z,99.99
2019-03-25T04:06:42.741Z,99.99
2019-03-25T04:07:42.726Z,99.99
2019-03-25T04:08:42.700Z,99.99
2019-03-25T04:09:42.677Z,99.99
2019-03-25T04:10:42.656Z,99.99
2019-03-25T04:11:42.636Z,99.69
2019-03-25T04:12:42.613Z,99.88
2019-03-25T04:13:42.598Z,99.69
2019-03-25T04:14:42.574Z,99.99
2019-03-25T04:15:42.556Z,99.11
2019-03-25T04:16:42.529Z,99.78
2019-03-25T04:17:42.514Z,99.69
2019-03-25T04:18:42.487Z,99.50
2019-03-25T04:19:42.474Z,99.30
2019-03-25T04:20:42.447Z,98.59
2019-03-25T04:21:42.429Z,98.97
2019-03-25T04:22:42.410Z,99.44
2019-03-25T04:23:42.386Z,99.35
2019-03-25T04:24:42.367Z,99.73
2019-03-25T04:25:42.342Z,99.54
2019-03-25T04:26:42.321Z,98.97
2019-03-25T04:27:42.317Z,98.88
2019-03-25T04:28:42.278Z,99.54
2019-03-25T04:29:42.259Z,99.44
2019-03-25T04:30:42.235Z,99.54
2019-03-25T04:31:42.216Z,98.79
2019-03-25T04:32:42.197Z,98.59
2019-03-25T04:33:42.170Z,98.79
2019-03-25T04:34:42.150Z,98.45
2019-03-25T04:35:42.130Z,98.12
2019-03-25T04:36:42.115Z,97.64
2019-03-25T04:37:42.087Z,97.17
2019-03-25T04:38:42.067Z,97.27
2019-03-25T04:39:42.048Z,96.31
2019-03-25T04:40:42.026Z,96.60
2019-03-25T04:41:42.002Z,97.17
2019-03-25T04:42:41.987Z,96.98
2019-03-25T04:43:41.960Z,97.27
2019-03-25T04:44:41.949Z,97.55
2019-03-25T04:45:41.918Z,98.50
2019-03-25T04:46:41.957Z,98.79
2019-03-25T04:47:41.876Z,99.35
2019-03-25T04:48:41.857Z,99.16
2019-03-25T04:49:41.832Z,99.44
2019-03-25T04:50:41.812Z,99.54
2019-03-25T04:51:41.790Z,99.26
2019-03-25T04:52:41.768Z,98.88
2019-03-25T04:53:41.748Z,98.59
2019-03-25T04:54:41.726Z,98.79
2019-03-25T04:55:41.707Z,98.79
2019-03-25T04:56:41.689Z,98.79
2019-03-25T04:57:41.666Z,99.64
2019-03-25T04:58:41.641Z,99.44
2019-03-25T04:59:41.621Z,99.64
2019-03-25T05:00:41.610Z,99.54
2019-03-25T05:01:41.596Z,98.40
2019-03-25T05:02:41.581Z,99.54
2019-03-25T05:03:41.540Z,99.26
2019-03-25T05:04:41.518Z,99.99
2019-03-25T05:05:41.497Z,99.99
2019-03-25T05:06:41.475Z,99.83
2019-03-25T05:07:41.449Z,99.99
2019-03-25T05:08:41.428Z,99.99
2019-03-25T05:09:41.409Z,99.83
2019-03-25T05:10:41.387Z,99.99
2019-03-25T05:11:41.367Z,99.99
2019-03-25T05:12:41.360Z,99.99
2019-03-25T05:13:41.322Z,99.99
2019-03-25T05:14:41.306Z,99.99
2019-03-25T05:15:41.504Z,99.99
2019-03-25T05:16:41.258Z,99.99
2019-03-25T05:17:41.247Z,99.99
2019-03-25T05:18:41.225Z,99.99
2019-03-25T05:19:41.194Z,99.99
2019-03-25T05:20:41.176Z,99.99
2019-03-25T05:21:41.152Z,99.99
2019-03-25T05:22:41.132Z,99.99
2019-03-25T05:23:41.110Z,99.99
2019-03-25T05:24:41.094Z,99.99
2019-03-25T05:25:41.069Z,99.99
2019-03-25T05:26:50.473Z,99.99
2019-03-25T05:27:41.024Z,99.99
2019-03-25T05:28:41.002Z,99.99
2019-03-25T05:29:40.989Z,99.99
2019-03-25T05:30:40.959Z,99.99
2019-03-25T05:31:40.966Z,99.99
2019-03-25T05:32:40.922Z,99.99
2019-03-25T05:33:40.896Z,99.99
2019-03-25T05:34:40.915Z,99.99
2019-03-25T05:35:40.856Z,99.99
2019-03-25T05:36:40.833Z,99.99
2019-03-25T05:37:40.810Z,99.99
2019-03-25T05:38:40.787Z,99.99
2019-03-25T05:39:40.766Z,99.99
2019-03-25T05:40:40.747Z,99.99
2019-03-25T05:41:40.724Z,99.99
2019-03-25T05:42:40.734Z,99.99
2019-03-25T05:43:40.684Z,99.99
2019-03-25T05:44:40.659Z,99.99
2019-03-25T05:45:40.639Z,99.99
2019-03-25T05:46:40.623Z,99.99
2019-03-25T05:47:40.593Z,99.99
2019-03-25T05:48:40.654Z,99.99
2019-03-25T05:49:40.555Z,99.99
2019-03-25T05:50:40.537Z,99.99
2019-03-25T05:51:40.516Z,99.99
2019-03-25T05:52:40.487Z,99.99
2019-03-25T05:53:40.469Z,99.99
2019-03-25T05:54:40.444Z,99.99
2019-03-25T05:55:41.006Z,99.99
2019-03-25T05:56:40.402Z,99.99
2019-03-25T05:57:40.388Z,99.99
2019-03-25T05:58:40.369Z,99.99
2019-03-25T05:59:40.336Z,99.99
2019-03-25T06:00:40.322Z,99.99
2019-03-25T06:01:40.299Z,99.99
2019-03-25T06:02:40.276Z,99.99
2019-03-25T06:03:40.255Z,99.99
2019-03-25T06:04:40.229Z,99.99
2019-03-25T06:05:40.209Z,99.99
2019-03-25T06:06:40.190Z,99.99
2019-03-25T06:07:40.167Z,99.99
2019-03-25T06:08:40.157Z,99.99
2019-03-25T06:09:40.128Z,99.99
2019-03-25T06:10:40.109Z,99.99
2019-03-25T06:11:40.082Z,99.99
2019-03-25T06:12:42.406Z,99.99
2019-03-25T06:13:40.041Z,99.99
2019-03-25T06:14:40.018Z,99.99
2019-03-25T06:15:39.996Z,99.99
2019-03-25T06:16:39.975Z,99.99
2019-03-25T06:17:39.951Z,99.99
2019-03-25T06:18:39.931Z,99.99
2019-03-25T06:19:39.912Z,99.99
2019-03-25T06:20:39.890Z,99.99
2019-03-25T06:21:39.873Z,99.99
2019-03-25T06:22:39.848Z,99.99
2019-03-25T06:23:39.828Z,99.99
2019-03-25T06:24:39.800Z,99.99
2019-03-25T06:25:39.791Z,99.99
2019-03-25T06:26:39.760Z,99.99
2019-03-25T06:27:39.739Z,99.99
2019-03-25T06:28:39.720Z,99.99
2019-03-25T06:29:39.694Z,99.99
2019-03-25T06:30:39.678Z,99.99
2019-03-25T06:31:39.655Z,99.99
2019-03-25T06:32:39.633Z,99.99
2019-03-25T06:33:39.614Z,99.99
2019-03-25T06:34:39.591Z,99.99
2019-03-25T06:35:39.570Z,99.99
2019-03-25T06:36:39.553Z,99.99
2019-03-25T06:37:39.526Z,99.99
2019-03-25T06:38:39.508Z,99.99
2019-03-25T06:39:39.487Z,99.99
2019-03-25T06:40:39.469Z,99.99
2019-03-25T06:41:39.442Z,99.99
2019-03-25T06:42:39.428Z,99.99
2019-03-25T06:43:39.410Z,99.99
2019-03-25T06:44:39.385Z,99.99
2019-03-25T06:45:39.360Z,99.99
2019-03-25T06:46:39.339Z,99.99
2019-03-25T06:47:39.322Z,99.99
2019-03-25T06:48:39.295Z,99.99
2019-03-25T06:49:39.286Z,99.99
2019-03-25T06:50:39.263Z,99.99
2019-03-25T06:51:39.234Z,99.99
2019-03-25T06:52:39.220Z,99.99
2019-03-25T06:53:39.196Z,99.99
2019-03-25T06:54:39.176Z,99.99
2019-03-25T06:55:39.157Z,99.99
2019-03-25T06:56:39.130Z,99.99
2019-03-25T06:57:39.113Z,99.99
2019-03-25T06:58:39.090Z,99.99
2019-03-25T06:59:39.068Z,99.99
2019-03-25T07:00:39.051Z,99.99
2019-03-25T07:01:39.028Z,99.99
2019-03-25T07:02:39.008Z,99.99
2019-03-25T07:03:38.990Z,99.99
2019-03-25T07:04:38.967Z,99.99
2019-03-25T07:05:38.951Z,99.99
2019-03-25T07:06:38.925Z,99.99
2019-03-25T07:07:38.907Z,99.99
2019-03-25T07:08:38.881Z,99.99
2019-03-25T07:09:38.861Z,99.99
2019-03-25T07:10:38.842Z,99.99
2019-03-25T07:11:38.821Z,99.99
2019-03-25T07:12:38.798Z,99.99
2019-03-25T07:13:38.778Z,99.99
2019-03-25T07:14:38.763Z,99.99
2019-03-25T07:15:38.739Z,99.99
2019-03-25T07:16:38.725Z,99.99
2019-03-25T07:17:38.701Z,99.99
2019-03-25T07:18:38.678Z,99.99
2019-03-25T07:19:38.655Z,99.99
2019-03-25T07:20:38.651Z,99.99
2019-03-25T07:21:38.612Z,99.99
2019-03-25T07:22:38.592Z,99.99
2019-03-25T07:23:38.569Z,99.99
2019-03-25T07:24:38.557Z,99.99
2019-03-25T07:25:38.528Z,99.99
2019-03-25T07:26:38.515Z,99.99
2019-03-25T07:27:38.487Z,99.99
2019-03-25T07:28:38.842Z,99.99
2019-03-25T07:29:38.466Z,97.55
2019-03-25T07:30:38.442Z,94.74
2019-03-25T07:31:38.413Z,93.03
2019-03-25T07:32:38.395Z,93.03
2019-03-25T07:33:38.377Z,92.84
2019-03-25T07:34:38.361Z,93.08
2019-03-25T07:35:38.346Z,93.55
2019-03-25T07:36:38.322Z,94.56
2019-03-25T07:37:38.305Z,95.89
2019-03-25T07:38:38.287Z,97.03
2019-03-25T07:39:38.268Z,97.31
2019-03-25T07:40:38.257Z,96.94
2019-03-25T07:41:38.230Z,98.36
2019-03-25T07:42:38.218Z,99.12
2019-03-25T07:43:38.194Z,98.22
2019-03-25T07:44:38.190Z,99.99
2019-03-25T07:45:38.156Z,99.99
2019-03-25T07:46:38.136Z,99.99
2019-03-25T07:47:38.116Z,99.99
2019-03-25T07:48:38.097Z,99.99
2019-03-25T07:49:38.077Z,99.99
2019-03-25T07:50:38.060Z,99.99
2019-03-25T07:51:38.048Z,99.99
2019-03-25T07:52:38.019Z,99.99
2019-03-25T07:53:38.005Z,99.99
2019-03-25T07:54:37.988Z,99.99
2019-03-25T07:55:37.995Z,99.99
2019-03-25T07:56:37.968Z,99.99
2019-03-25T07:57:47.665Z,99.99
2019-03-25T07:58:37.904Z,99.99
2019-03-25T07:59:37.896Z,99.99
2019-03-25T08:00:37.903Z,99.99
2019-03-25T08:01:37.846Z,99.99
2019-03-25T08:02:37.836Z,99.99
2019-03-25T08:03:37.803Z,99.99
2019-03-25T08:04:38.793Z,99.99
2019-03-25T08:05:37.759Z,99.99
2019-03-25T08:06:37.745Z,99.99
2019-03-25T08:07:37.734Z,99.99
2019-03-25T08:08:37.707Z,99.99
2019-03-25T08:09:37.683Z,99.99
2019-03-25T08:10:37.658Z,99.99
2019-03-25T08:11:37.639Z,99.99
2019-03-25T08:12:37.624Z,99.99
2019-03-25T08:13:37.631Z,99.99
2019-03-25T08:14:37.579Z,99.99
2019-03-25T08:15:37.571Z,99.99
2019-03-25T08:16:37.536Z,99.99
2019-03-25T08:17:37.514Z,99.99
2019-03-25T08:18:37.489Z,99.99
2019-03-25T08:19:37.470Z,99.99
2019-03-25T08:20:37.449Z,99.99
2019-03-25T08:21:37.433Z,99.99
2019-03-25T08:22:37.410Z,99.99
2019-03-25T08:23:37.393Z,99.99
2019-03-25T08:24:37.375Z,99.99
2019-03-25T08:25:37.346Z,99.99
2019-03-25T08:26:37.324Z,94.56
2019-03-25T08:27:37.308Z,89.79
2019-03-25T08:28:37.290Z,84.34
2019-03-25T08:29:37.278Z,80.04
2019-03-25T08:30:37.266Z,75.24
2019-03-25T08:31:37.242Z,72.58
2019-03-25T08:32:37.226Z,69.26
2019-03-25T08:33:37.216Z,66.45
2019-03-25T08:34:37.199Z,66.22
2019-03-25T08:35:37.195Z,64.18
2019-03-25T08:36:37.182Z,65.58
2019-03-25T08:37:37.163Z,65.23
2019-03-25T08:38:37.158Z,64.28
2019-03-25T08:39:37.142Z,63.92
2019-03-25T08:40:37.132Z,62.49
2019-03-25T08:41:37.134Z,65.26
2019-03-25T08:42:37.115Z,65.88
2019-03-25T08:43:37.119Z,66.41
2019-03-25T08:44:37.097Z,66.35
2019-03-25T08:45:37.083Z,66.76
2019-03-25T08:46:37.074Z,68.16
2019-03-25T08:47:37.062Z,70.56
2019-03-25T08:48:37.055Z,69.29
2019-03-25T08:49:37.044Z,66.67
2019-03-25T08:50:37.034Z,64.31
2019-03-25T08:51:37.032Z,63.89
2019-03-25T08:52:37.013Z,64.53
2019-03-25T08:53:37.007Z,65.23
2019-03-25T08:54:37.996Z,63.89
2019-03-25T08:55:36.990Z,64.56
2019-03-25T08:56:36.981Z,65.36
2019-03-25T08:57:36.969Z,65.42
2019-03-25T08:58:36.967Z,67.84
2019-03-25T08:59:36.958Z,70.67
2019-03-25T09:00:36.940Z,71.76
2019-03-25T09:01:36.931Z,71.32
2019-03-25T09:02:36.922Z,72.68
2019-03-25T09:03:36.910Z,73.83
2019-03-25T09:04:36.903Z,74.74
2019-03-25T09:05:36.888Z,77.03
2019-03-25T09:06:36.877Z,77.00
2019-03-25T09:07:36.863Z,79.25
2019-03-25T09:08:36.852Z,80.49
2019-03-25T09:09:36.838Z,81.54
2019-03-25T09:10:36.830Z,82.20
2019-03-25T09:11:36.822Z,82.45
2019-03-25T09:12:36.801Z,84.26
2019-03-25T09:13:36.797Z,84.45
2019-03-25T09:14:36.777Z,84.16
2019-03-25T09:15:36.759Z,84.16
2019-03-25T09:16:36.754Z,84.16
2019-03-25T09:17:36.728Z,84.74
2019-03-25T09:18:36.713Z,84.55
2019-03-25T09:19:36.699Z,84.69
2019-03-25T09:20:36.684Z,83.25
2019-03-25T09:21:36.675Z,84.07
2019-03-25T09:22:36.667Z,84.92
2019-03-25T09:23:36.640Z,85.31
2019-03-25T09:24:36.625Z,85.21
2019-03-25T09:25:36.608Z,85.02
2019-03-25T09:26:36.597Z,85.69
2019-03-25T09:27:36.590Z,85.97
2019-03-25T09:28:36.563Z,87.12
2019-03-25T09:29:36.548Z,86.88
2019-03-25T09:30:36.541Z,86.88
2019-03-25T09:31:37.217Z,86.69
2019-03-25T09:32:36.494Z,87.46
2019-03-25T09:33:36.480Z,88.41
2019-03-25T09:34:36.466Z,89.46
2019-03-25T09:35:36.449Z,91.79
2019-03-25T09:36:36.439Z,93.08
2019-03-25T09:37:36.415Z,96.51
2019-03-25T09:38:36.394Z,99.79
2019-03-25T09:39:36.378Z,99.79
2019-03-25T09:40:36.360Z,99.99
2019-03-25T09:41:36.341Z,99.99
2019-03-25T09:42:36.325Z,99.99
2019-03-25T09:43:36.327Z,99.99
2019-03-25T09:44:36.297Z,99.99
2019-03-25T09:45:36.270Z,99.99
2019-03-25T09:46:36.258Z,99.99
2019-03-25T09:47:37.846Z,99.99
2019-03-25T09:48:36.213Z,99.99
2019-03-25T09:49:36.194Z,99.99
2019-03-25T09:50:36.170Z,98.94
2019-03-25T09:51:36.154Z,97.22
2019-03-25T09:52:38.814Z,97.41
2019-03-25T09:53:36.116Z,96.70
2019-03-25T09:54:36.098Z,95.94
2019-03-25T09:55:36.085Z,95.32
2019-03-25T09:56:36.063Z,95.22
2019-03-25T09:57:36.045Z,94.74
2019-03-25T09:58:36.768Z,96.22
2019-03-25T09:59:36.011Z,98.22
2019-03-25T10:00:35.990Z,99.99
2019-03-25T10:01:35.978Z,99.99
2019-03-25T10:02:35.954Z,99.99
2019-03-25T10:03:35.935Z,99.99
2019-03-25T10:04:35.917Z,99.99
2019-03-25T10:05:35.897Z,99.99
2019-03-25T10:06:35.879Z,99.99
2019-03-25T10:07:35.868Z,99.99
2019-03-25T10:08:35.839Z,99.99
2019-03-25T10:09:35.829Z,99.99
2019-03-25T10:10:35.805Z,99.99
2019-03-25T10:11:35.783Z,99.99
2019-03-25T10:12:35.765Z,99.99
2019-03-25T10:13:35.747Z,99.99
2019-03-25T10:14:35.738Z,99.99
2019-03-25T10:15:35.707Z,99.99
2019-03-25T10:16:35.695Z,99.99
2019-03-25T10:17:35.667Z,99.99
2019-03-25T10:18:35.656Z,99.99
2019-03-25T10:19:35.647Z,99.08
2019-03-25T10:20:35.615Z,96.89
2019-03-25T10:21:35.593Z,95.65
2019-03-25T10:22:35.580Z,94.70
2019-03-25T10:23:35.556Z,94.60
2019-03-25T10:24:35.536Z,95.65
2019-03-25T10:25:35.527Z,95.46
2019-03-25T10:26:35.505Z,94.74
2019-03-25T10:27:35.482Z,95.89
2019-03-25T10:28:47.517Z,96.36
2019-03-25T10:29:35.445Z,94.51
2019-03-25T10:30:35.427Z,92.46
2019-03-25T10:31:35.409Z,92.08
2019-03-25T10:32:35.397Z,90.59
2019-03-25T10:33:35.376Z,89.64
2019-03-25T10:34:35.370Z,88.69
2019-03-25T10:35:35.335Z,86.02
2019-03-25T10:36:35.318Z,86.49
2019-03-25T10:37:35.301Z,86.35
2019-03-25T10:38:35.287Z,86.16
2019-03-25T10:39:35.267Z,85.97
2019-03-25T10:40:35.253Z,84.63
2019-03-25T10:41:35.230Z,81.67
2019-03-25T10:42:35.214Z,83.24
2019-03-25T10:43:35.201Z,83.28
2019-03-25T10:44:35.183Z,80.36
2019-03-25T10:45:35.165Z,78.13
2019-03-25T10:46:35.147Z,79.85
2019-03-25T10:47:35.135Z,79.02
2019-03-25T10:48:35.120Z,77.84
2019-03-25T10:49:35.104Z,77.45
2019-03-25T10:50:35.089Z,77.70
2019-03-25T10:51:35.071Z,78.72
2019-03-25T10:52:35.058Z,79.72
2019-03-25T10:53:35.036Z,82.26
2019-03-25T10:54:35.075Z,83.97
2019-03-25T10:55:35.005Z,85.36
2019-03-25T10:56:34.984Z,86.51
2019-03-25T10:57:34.968Z,87.27
2019-03-25T10:58:34.959Z,87.46
2019-03-25T10:59:34.933Z,87.40
2019-03-25T11:00:34.914Z,88.07
2019-03-25T11:01:34.902Z,87.83
2019-03-25T11:02:34.888Z,86.49
2019-03-25T11:03:34.865Z,84.82
2019-03-25T11:04:34.857Z,82.53
2019-03-25T11:05:34.839Z,80.43
2019-03-25T11:06:34.827Z,79.33
2019-03-25T11:07:34.883Z,78.94
2019-03-25T11:08:34.792Z,78.28
2019-03-25T11:09:34.765Z,77.23
2019-03-25T11:10:34.751Z,77.32
2019-03-25T11:11:34.732Z,75.79
2019-03-25T11:12:34.716Z,75.74
2019-03-25T11:13:34.709Z,76.06
2019-03-25T11:14:34.681Z,76.06
2019-03-25T11:15:34.671Z,72.49
2019-03-25T11:16:34.650Z,71.21
2019-03-25T11:17:34.634Z,72.45
2019-03-25T11:18:34.619Z,73.22
2019-03-25T11:19:34.600Z,73.75
2019-03-25T11:20:34.582Z,73.91
2019-03-25T11:21:34.570Z,74.48
2019-03-25T11:22:34.546Z,74.38
2019-03-25T11:23:34.533Z,75.53
2019-03-25T11:24:34.515Z,76.54
2019-03-25T11:25:34.500Z,79.41
2019-03-25T11:26:34.480Z,83.56
2019-03-25T11:27:34.466Z,86.18
2019-03-25T11:28:34.447Z,88.33
2019-03-25T11:29:34.440Z,91.13
2019-03-25T11:30:34.409Z,93.51
2019-03-25T11:31:34.396Z,94.37
2019-03-25T11:32:34.372Z,95.41
2019-03-25T11:33:34.352Z,96.74
2019-03-25T11:34:34.336Z,97.60
2019-03-25T11:35:34.323Z,98.64
2019-03-25T11:36:34.302Z,98.55
2019-03-25T11:37:34.281Z,98.36
2019-03-25T11:38:34.258Z,99.11
2019-03-25T11:39:34.238Z,99.69
2019-03-25T11:40:34.219Z,98.83
2019-03-25T11:41:34.200Z,98.83
2019-03-25T11:42:34.180Z,99.21
2019-03-25T11:43:34.163Z,98.97
2019-03-25T11:44:34.142Z,98.79
2019-03-25T11:45:34.139Z,98.12
2019-03-25T11:46:34.107Z,98.31
2019-03-25T11:47:34.082Z,98.60
2019-03-25T11:48:34.065Z,98.88
2019-03-25T11:49:34.043Z,96.94
2019-03-25T11:50:34.024Z,95.12
2019-03-25T11:51:34.006Z,95.32
2019-03-25T11:52:33.986Z,94.74
2019-03-25T11:53:33.969Z,94.27
2019-03-25T11:54:33.949Z,95.65
2019-03-25T11:55:33.935Z,94.89
2019-03-25T11:56:33.909Z,92.65
2019-03-25T11:57:33.886Z,89.98
2019-03-25T11:58:33.872Z,89.55
2019-03-25T11:59:33.853Z,88.41
2019-03-25T12:00:33.827Z,88.74
2019-03-25T12:01:33.813Z,89.40
2019-03-25T12:02:33.793Z,88.21
2019-03-25T12:03:33.787Z,86.35
2019-03-25T12:04:33.750Z,85.01
2019-03-25T12:05:33.734Z,83.67
2019-03-25T12:06:33.722Z,82.53
2019-03-25T12:07:33.697Z,82.06
2019-03-25T12:08:33.680Z,80.33
2019-03-25T12:09:33.663Z,81.73
2019-03-25T12:10:33.650Z,82.87
2019-03-25T12:11:33.628Z,83.64
2019-03-25T12:12:33.607Z,84.16
2019-03-25T12:13:33.591Z,83.20
2019-03-25T12:14:33.576Z,83.81
2019-03-25T12:15:33.557Z,79.99
2019-03-25T12:16:33.539Z,79.56
2019-03-25T12:17:33.528Z,78.99
2019-03-25T12:18:33.504Z,76.69
2019-03-25T12:19:33.493Z,75.68
2019-03-25T12:20:33.467Z,75.10
2019-03-25T12:21:33.449Z,75.14
2019-03-25T12:22:33.442Z,75.52
2019-03-25T12:23:33.418Z,73.23
2019-03-25T12:24:33.396Z,73.33
2019-03-25T12:25:33.383Z,72.98
2019-03-25T12:26:33.362Z,73.33
2019-03-25T12:27:33.397Z,72.56
2019-03-25T12:28:33.346Z,72.94
2019-03-25T12:29:33.316Z,72.85
2019-03-25T12:30:33.303Z,71.07
2019-03-25T12:31:33.287Z,70.68
2019-03-25T12:32:33.272Z,71.26
2019-03-25T12:33:33.254Z,70.78
2019-03-25T12:34:33.337Z,69.73
2019-03-25T12:35:33.221Z,70.87
2019-03-25T12:36:33.198Z,71.55
2019-03-25T12:37:33.181Z,71.36
2019-03-25T12:38:33.168Z,71.93
2019-03-25T12:39:33.152Z,72.18
2019-03-25T12:40:33.139Z,71.89
2019-03-25T12:41:33.120Z,71.09
2019-03-25T12:42:33.107Z,72.39
2019-03-25T12:43:33.087Z,72.58
2019-03-25T12:44:33.069Z,73.54
2019-03-25T12:45:33.054Z,73.41
2019-03-25T12:46:33.034Z,74.55
2019-03-25T12:47:33.022Z,74.84
2019-03-25T12:48:33.004Z,75.89
2019-03-25T12:49:32.983Z,77.61
2019-03-25T12:50:32.972Z,77.42
2019-03-25T12:51:32.950Z,74.80
2019-03-25T12:52:32.934Z,73.56